Time;durP1;ratioP1;P1;durP2;ratioP2;P2;SDS_P1;SDS_P2;PMS_P1;PMS_P2;Temp;Humidity;BMP_temperature;BMP_pressure;BME280_temperature;BME280_humidity;BME280_pressure;Samples;Min_cycle;Max_cycle;Signal;HPM_P1;HPM_P2
2022/08/22 12:07:52;;;;;;;8.27;2.00;;;;;;;;;;5048325;27;87087;-60
2022/08/22 12:14:40;;;;;;;10.75;3.22;;;;;;;;;;5069645;27;88081;-74
2022/08/22 12:17:08;;;;;;;8.52;2.75;;;;;;;;;;5060686;27;87551;-75
2022/08/22 12:19:39;;;;;;;14.82;2.78;;;;;;;;;;5062227;27;88627;-76
2022/08/22 12:22:38;;;;;;;8.95;2.90;;;;;;;;;;5065375;27;90688;-76
2022/08/22 12:25:12;;;;;;;11.10;3.35;;;;;;;;;;5064056;27;89372;-75
2022/08/22 12:27:41;;;;;;;11.27;2.88;;;;;;;;;;5068910;27;88545;-77
2022/08/22 12:30:29;;;;;;;11.07;2.75;;;;;;;;;;5069418;27;88719;-75
2022/08/22 12:33:05;;;;;;;12.13;3.00;;;;;;;;;;5061946;27;89145;-74
2022/08/22 12:35:44;;;;;;;6.95;2.58;;;;;;;;;;5066109;27;89355;-74
2022/08/22 12:38:32;;;;;;;10.10;2.42;;;;;;;;;;5061202;27;88754;-74
2022/08/22 12:41:12;;;;;;;9.45;2.63;;;;;;;;;;5051998;27;89101;-74
2022/08/22 19:03:02;;;;;;;9.23;2.78;;;;;;;;;;5007433;28;86874;-76
2022/08/22 19:05:29;;;;;;;8.43;3.08;;;;;;;;;;5003536;28;87619;-75
2022/08/22 19:07:58;;;;;;;8.43;3.10;;;;;;;;;;4992239;28;88140;-76
2022/08/22 19:10:33;;;;;;;9.77;3.45;;;;;;;;;;5003755;28;88499;-75
2022/08/22 19:12:59;;;;;;;7.88;3.30;;;;;;;;;;5004516;28;89047;-76
2022/08/22 19:15:31;;;;;;;18.23;3.50;;;;;;;;;;5003582;28;87455;-75
2022/08/22 19:18:03;;;;;;;11.07;3.45;;;;;;;;;;4987549;28;88230;-75
2022/08/22 19:23:31;;;;;;;18.00;3.45;;;;;;;;;;5007845;28;88643;-75
2022/08/22 19:26:16;;;;;;;9.52;3.42;;;;;;;;;;5005654;28;89070;-75
2022/08/22 19:28:42;;;;;;;7.18;3.20;;;;;;;;;;4995693;28;88604;-75
2022/08/22 19:31:21;;;;;;;9.52;3.63;;;;;;;;;;4991290;28;88174;-75
2022/08/22 19:34:07;;;;;;;12.85;3.40;;;;;;;;;;4987034;28;89195;-75
2022/08/22 19:36:34;;;;;;;12.70;3.58;;;;;;;;;;4965020;28;89769;-75
2022/08/22 19:39:03;;;;;;;8.98;3.35;;;;;;;;;;4992321;28;88911;-75
2022/08/22 19:41:53;;;;;;;11.73;3.13;;;;;;;;;;4997482;28;89491;-75
2022/08/22 19:44:19;;;;;;;13.15;3.42;;;;;;;;;;4994097;28;88185;-75
2022/08/22 19:47:01;;;;;;;11.50;3.30;;;;;;;;;;5009990;28;88516;-75
2022/08/22 19:49:27;;;;;;;;;;;;;;;;;;4995898;28;88379;-76
2022/08/22 19:52:12;;;;;;;10.93;3.47;;;;;;;;;;4991797;28;116818;-75
2022/08/22 19:55:01;;;;;;;9.98;3.50;;;;;;;;;;5007621;28;87632;-75
2022/08/22 19:57:33;;;;;;;11.63;3.90;;;;;;;;;;5001868;28;88293;-76
2022/08/22 20:00:11;;;;;;;8.80;3.55;;;;;;;;;;4993759;28;88861;-75
2022/08/22 20:02:56;;;;;;;9.00;3.25;;;;;;;;;;4993391;28;89136;-75
2022/08/22 20:05:26;;;;;;;10.13;3.30;;;;;;;;;;5002956;28;88479;-75
2022/08/22 20:07:53;;;;;;;8.80;3.28;;;;;;;;;;4987315;28;88615;-75
2022/08/22 20:10:28;;;;;;;12.88;4.20;;;;;;;;;;4989760;28;89156;-76
2022/08/22 20:12:55;;;;;;;12.05;3.35;;;;;;;;;;4997006;28;88414;-75
2022/08/22 20:15:24;;;;;;;9.63;4.18;;;;;;;;;;4995369;28;89164;-75
2022/08/22 20:17:50;;;;;;;16.85;4.20;;;;;;;;;;4979186;28;88733;-75
2022/08/22 20:20:53;;;;;;;10.65;4.30;;;;;;;;;;4980702;28;88217;-75
2022/08/22 20:23:25;;;;;;;13.15;4.38;;;;;;;;;;4992202;28;88835;-75
2022/08/22 20:25:54;;;;;;;12.88;4.22;;;;;;;;;;4984606;28;88173;-75
2022/08/22 20:28:33;;;;;;;7.03;3.85;;;;;;;;;;4993372;28;89048;-76
2022/08/22 20:31:01;;;;;;;9.10;4.60;;;;;;;;;;4983244;28;88959;-76
2022/08/22 20:33:34;;;;;;;12.15;4.32;;;;;;;;;;4996115;28;88189;-75
2022/08/22 20:36:04;;;;;;;15.57;5.10;;;;;;;;;;4984168;28;89020;-75
2022/08/22 20:38:33;;;;;;;16.15;6.18;;;;;;;;;;4992865;28;88574;-76
2022/08/22 20:41:04;;;;;;;13.30;4.47;;;;;;;;;;4985997;28;88621;-75
2022/08/22 20:43:40;;;;;;;20.25;5.07;;;;;;;;;;4980496;28;89050;-75
2022/08/22 20:46:10;;;;;;;12.65;5.97;;;;;;;;;;4977034;28;88331;-75
2022/08/22 20:48:39;;;;;;;13.47;5.57;;;;;;;;;;4974997;28;88873;-75
2022/08/22 20:51:08;;;;;;;12.32;6.22;;;;;;;;;;4986169;28;89223;-75
2022/08/22 20:53:34;;;;;;;14.98;5.63;;;;;;;;;;4973933;28;88399;-74
2022/08/22 20:56:02;;;;;;;14.25;5.72;;;;;;;;;;4974741;28;88378;-75
2022/08/22 20:58:37;;;;;;;12.45;5.68;;;;;;;;;;4981697;28;88481;-75
2022/08/22 21:01:04;;;;;;;13.48;6.18;;;;;;;;;;4986429;28;88267;-75
2022/08/22 21:03:44;;;;;;;13.70;4.88;;;;;;;;;;4992049;28;89303;-74
2022/08/22 21:06:12;;;;;;;12.80;6.30;;;;;;;;;;4986511;28;88514;-74
2022/08/22 21:08:39;;;;;;;11.48;6.75;;;;;;;;;;4982570;28;89260;-75
2022/08/22 21:13:51;;;;;;;19.40;7.40;;;;;;;;;;4987151;28;88279;-75
2022/08/22 21:16:19;;;;;;;23.85;8.10;;;;;;;;;;4977722;28;88358;-76
2022/08/22 21:18:47;;;;;;;15.90;7.30;;;;;;;;;;4978629;28;87527;-76
2022/08/22 21:21:21;;;;;;;18.48;7.10;;;;;;;;;;4981908;28;88473;-76
2022/08/22 21:23:48;;;;;;;13.63;6.18;;;;;;;;;;4984424;28;88875;-76
2022/08/22 21:26:29;;;;;;;11.00;6.13;;;;;;;;;;4986016;28;88348;-75
2022/08/22 21:29:04;;;;;;;13.02;7.00;;;;;;;;;;4984467;28;88232;-75
2022/08/22 21:31:33;;;;;;;13.48;6.68;;;;;;;;;;4984984;28;89168;-76
2022/08/22 21:34:01;;;;;;;13.05;6.80;;;;;;;;;;4992065;28;88889;-76
2022/08/22 21:36:29;;;;;;;14.95;7.32;;;;;;;;;;4990917;28;88416;-76
2022/08/22 21:39:00;;;;;;;14.48;7.03;;;;;;;;;;4989986;28;87803;-75
2022/08/22 21:41:31;;;;;;;16.27;7.90;;;;;;;;;;4972972;28;87939;-75
2022/08/22 21:44:16;;;;;;;17.77;8.13;;;;;;;;;;4984289;28;88866;-75
2022/08/22 21:46:42;;;;;;;14.00;7.43;;;;;;;;;;4979923;28;89037;-75
2022/08/22 21:49:18;;;;;;;11.82;6.47;;;;;;;;;;4976463;28;88475;-74
2022/08/22 21:51:44;;;;;;;10.13;6.43;;;;;;;;;;4979071;28;88829;-75
2022/08/22 21:54:17;;;;;;;14.90;6.03;;;;;;;;;;4991944;28;88678;-74
2022/08/22 21:56:44;;;;;;;12.70;6.20;;;;;;;;;;4991062;28;88888;-74
2022/08/22 21:59:18;;;;;;;12.30;6.75;;;;;;;;;;4973568;28;88993;-74
2022/08/22 22:01:50;;;;;;;15.88;6.55;;;;;;;;;;4988757;28;88285;-74
2022/08/22 22:04:17;;;;;;;11.48;5.90;;;;;;;;;;4992382;28;88906;-74
2022/08/22 22:06:43;;;;;;;20.52;7.30;;;;;;;;;;4986937;28;87163;-75
2022/08/22 22:09:10;;;;;;;13.38;6.38;;;;;;;;;;4979668;28;88766;-75
2022/08/22 22:11:40;;;;;;;11.57;5.80;;;;;;;;;;4992954;28;89021;-74
2022/08/22 22:14:07;;;;;;;13.48;6.53;;;;;;;;;;4992487;28;88221;-74
2022/08/22 22:16:33;;;;;;;17.42;6.68;;;;;;;;;;4979992;28;88561;-74
2022/08/22 22:19:00;;;;;;;16.90;6.57;;;;;;;;;;4986614;28;89194;-75
2022/08/22 22:21:26;;;;;;;14.88;7.07;;;;;;;;;;4980533;28;88565;-75
2022/08/22 22:23:53;;;;;;;12.98;6.68;;;;;;;;;;4994896;28;88117;-75
2022/08/22 22:26:24;;;;;;;12.45;6.47;;;;;;;;;;4980317;28;89083;-74
2022/08/22 22:28:50;;;;;;;16.30;6.82;;;;;;;;;;4987552;28;88464;-74
2022/08/22 22:31:17;;;;;;;14.63;7.07;;;;;;;;;;4986802;28;91532;-74
2022/08/22 22:33:43;;;;;;;13.02;6.38;;;;;;;;;;4982023;28;88341;-75
2022/08/22 22:36:13;;;;;;;15.07;6.53;;;;;;;;;;4991220;28;88261;-76
2022/08/22 22:38:39;;;;;;;16.55;6.65;;;;;;;;;;4972793;28;88752;-75
2022/08/22 22:41:05;;;;;;;12.80;6.15;;;;;;;;;;4973303;28;88139;-74
2022/08/22 22:43:32;;;;;;;10.63;6.32;;;;;;;;;;4983245;28;88415;-75
2022/08/22 22:45:58;;;;;;;13.32;6.60;;;;;;;;;;4984717;28;89298;-75
2022/08/22 22:48:24;;;;;;;13.38;6.15;;;;;;;;;;4978366;28;88448;-74
2022/08/22 22:50:51;;;;;;;11.80;6.28;;;;;;;;;;4971965;28;89440;-75
2022/08/22 22:53:18;;;;;;;13.82;7.43;;;;;;;;;;4989578;28;88136;-75
2022/08/22 22:56:04;;;;;;;13.63;7.43;;;;;;;;;;4991237;28;87382;-76
2022/08/22 22:58:32;;;;;;;13.27;7.60;;;;;;;;;;4979488;28;88960;-75
2022/08/22 23:01:05;;;;;;;17.17;6.85;;;;;;;;;;4989094;28;87340;-75
2022/08/22 23:03:31;;;;;;;15.13;6.70;;;;;;;;;;4992016;28;88529;-76
2022/08/22 23:05:57;;;;;;;12.35;6.45;;;;;;;;;;4991700;28;87863;-75
2022/08/22 23:08:24;;;;;;;11.25;6.65;;;;;;;;;;4990714;28;88231;-75
2022/08/22 23:10:50;;;;;;;8.20;6.03;;;;;;;;;;4991093;28;89451;-75
2022/08/22 23:13:16;;;;;;;21.65;7.07;;;;;;;;;;4974160;28;88234;-75
2022/08/22 23:15:42;;;;;;;12.32;6.65;;;;;;;;;;4970760;28;90823;-75
2022/08/22 23:18:09;;;;;;;14.30;6.85;;;;;;;;;;4985108;28;89054;-75
2022/08/22 23:20:35;;;;;;;12.02;6.07;;;;;;;;;;4985813;28;89300;-75
2022/08/22 23:23:01;;;;;;;10.63;6.13;;;;;;;;;;4987469;28;90356;-75
2022/08/22 23:25:28;;;;;;;11.98;6.03;;;;;;;;;;4989929;28;88860;-75
2022/08/22 23:27:54;;;;;;;10.38;5.68;;;;;;;;;;4980015;28;90454;-75
2022/08/22 23:30:20;;;;;;;11.48;5.90;;;;;;;;;;4970868;28;89073;-75
2022/08/22 23:32:47;;;;;;;10.63;5.65;;;;;;;;;;4984903;28;89962;-75
2022/08/22 23:35:13;;;;;;;20.27;6.05;;;;;;;;;;4990523;28;90118;-75
2022/08/22 23:37:40;;;;;;;14.55;5.72;;;;;;;;;;4980841;28;89112;-74
2022/08/22 23:40:08;;;;;;;11.23;5.70;;;;;;;;;;4970961;28;89757;-75
2022/08/22 23:42:34;;;;;;;9.88;6.10;;;;;;;;;;4975063;28;89438;-75
2022/08/22 23:45:00;;;;;;;13.07;5.70;;;;;;;;;;4990017;28;89276;-76
2022/08/22 23:47:27;;;;;;;8.85;5.57;;;;;;;;;;4986904;28;89787;-75
2022/08/22 23:49:53;;;;;;;9.05;5.25;;;;;;;;;;4992925;28;90774;-75
2022/08/22 23:52:19;;;;;;;8.52;5.03;;;;;;;;;;4992405;28;90972;-75
2022/08/22 23:54:46;;;;;;;11.10;5.60;;;;;;;;;;4982083;28;89830;-75
2022/08/22 23:57:19;;;;;;;12.38;5.82;;;;;;;;;;4975502;28;89369;-75
2022/08/22 23:59:51;;;;;;;9.73;5.15;;;;;;;;;;4993861;28;90148;-75
